Map

Track Data

SID SEASON NUMBER BASIN SUBBASIN NAME ISO_TIME NATURE LAT LON WMO_WIND WMO_PRES WMO_AGENCY TRACK_TYPE DIST2LAND LANDFALL IFLAG USA_AGENCY USA_ATCF_ID USA_LAT USA_LON USA_RECORD USA_STATUS USA_WIND USA_PRES USA_SSHS USA_R34_NE USA_R34_SE USA_R34_SW USA_R34_NW USA_R50_NE USA_R50_SE USA_R50_SW USA_R50_NW USA_R64_NE USA_R64_SE USA_R64_SW USA_R64_NW USA_POCI USA_ROCI USA_RMW USA_EYE TOKYO_LAT TOKYO_LON TOKYO_GRADE TOKYO_WIND TOKYO_PRES TOKYO_R50_DIR TOKYO_R50_LONG TOKYO_R50_SHORT TOKYO_R30_DIR TOKYO_R30_LONG TOKYO_R30_SHORT TOKYO_LAND CMA_LAT CMA_LON CMA_CAT CMA_WIND CMA_PRES HKO_LAT HKO_LON HKO_CAT HKO_WIND HKO_PRES NEWDELHI_LAT NEWDELHI_LON NEWDELHI_GRADE NEWDELHI_WIND NEWDELHI_PRES NEWDELHI_CI NEWDELHI_DP NEWDELHI_POCI REUNION_LAT REUNION_LON REUNION_TYPE REUNION_WIND REUNION_PRES REUNION_TNUM REUNION_CI REUNION_RMW REUNION_R34_NE REUNION_R34_SE REUNION_R34_SW REUNION_R34_NW REUNION_R50_NE REUNION_R50_SE REUNION_R50_SW REUNION_R50_NW REUNION_R64_NE REUNION_R64_SE REUNION_R64_SW REUNION_R64_NW BOM_LAT BOM_LON BOM_TYPE BOM_WIND BOM_PRES BOM_TNUM BOM_CI BOM_RMW BOM_R34_NE BOM_R34_SE BOM_R34_SW BOM_R34_NW BOM_R50_NE BOM_R50_SE BOM_R50_SW BOM_R50_NW BOM_R64_NE BOM_R64_SE BOM_R64_SW BOM_R64_NW BOM_ROCI BOM_POCI BOM_EYE BOM_POS_METHOD BOM_PRES_METHOD NADI_LAT NADI_LON NADI_CAT NADI_WIND NADI_PRES WELLINGTON_LAT WELLINGTON_LON WELLINGTON_WIND WELLINGTON_PRES DS824_LAT DS824_LON DS824_STAGE DS824_WIND DS824_PRES TD9636_LAT TD9636_LON TD9636_STAGE TD9636_WIND TD9636_PRES TD9635_LAT TD9635_LON TD9635_WIND TD9635_PRES TD9635_ROCI NEUMANN_LAT NEUMANN_LON NEUMANN_CLASS NEUMANN_WIND NEUMANN_PRES MLC_LAT MLC_LON MLC_CLASS MLC_WIND MLC_PRES USA_GUST BOM_GUST BOM_GUST_PER REUNION_GUST REUNION_GUST_PER USA_SEAHGT USA_SEARAD_NE USA_SEARAD_SE USA_SEARAD_SW USA_SEARAD_NW STORM_SPEED STORM_DIR
1901021S12113 1901 10 SI WA NOT_NAMED 1901-01-21 06:00:00 NR -12.1000 112.900 main 404 404 _____O________ -1 -12.1000 112.900 99 9.90000 3 244
1901021S12113 1901 10 SI WA NOT_NAMED 1901-01-21 09:00:00 NR -12.1575 112.777 main 417 417 _____P________ -1 -12.1575 112.777 99 3 244
1901021S12113 1901 10 SI WA NOT_NAMED 1901-01-21 12:00:00 NR -12.2143 112.654 main 420 420 _____P________ -1 -12.2143 112.654 99 3 245
1901021S12113 1901 10 SI WA NOT_NAMED 1901-01-21 15:00:00 NR -12.2697 112.530 main 437 437 _____P________ -1 -12.2697 112.530 99 3 246
1901021S12113 1901 10 SI WA NOT_NAMED 1901-01-21 18:00:00 NR -12.3229 112.406 main 438 438 _____P________ -1 -12.3229 112.406 99 3 247
1901021S12113 1901 10 SI WA NOT_NAMED 1901-01-21 21:00:00 NR -12.3732 112.281 main 450 450 _____P________ -1 -12.3732 112.281 99 3 248
1901021S12113 1901 10 SI WA NOT_NAMED 1901-01-22 00:00:00 NR -12.4200 112.155 main 451 450 _____P________ -1 -12.4200 112.155 99 3 250
1901021S12113 1901 10 SI WA NOT_NAMED 1901-01-22 03:00:00 NR -12.4625 112.028 main 460 459 _____P________ -1 -12.4625 112.028 99 3 252
1901021S12113 1901 10 SI WA NOT_NAMED 1901-01-22 06:00:00 NR -12.5000 111.900 main 459 459 _____O________ -1 -12.5000 111.900 99 9.90000 3 254
1901021S12113 1901 10 SI WA NOT_NAMED 1901-01-22 09:00:00 NR -12.5328 111.770 main 459 459 _____P________ -1 -12.5328 111.770 99 3 256
1901021S12113 1901 10 SI WA NOT_NAMED 1901-01-22 12:00:00 NR -12.5646 111.636 main 470 470 _____P________ -1 -12.5646 111.636 99 3 256
1901021S12113 1901 10 SI WA NOT_NAMED 1901-01-22 15:00:00 NR -12.6002 111.496 main 470 470 _____P________ -1 -12.6002 111.496 99 3 254
1901021S12113 1901 10 SI WA NOT_NAMED 1901-01-22 18:00:00 NR -12.6443 111.346 main 472 472 _____P________ -1 -12.6443 111.346 99 3 252
1901021S12113 1901 10 SI WA NOT_NAMED 1901-01-22 21:00:00 NR -12.7017 111.184 main 484 484 _____P________ -1 -12.7017 111.184 99 4 248
1901021S12113 1901 10 SI WA NOT_NAMED 1901-01-23 00:00:00 NR -12.7769 111.008 main 498 498 _____P________ -1 -12.7769 111.008 99 4 244
1901021S12113 1901 10 SI WA NOT_NAMED 1901-01-23 03:00:00 NR -12.8748 110.814 main 513 513 _____P________ -1 -12.8748 110.814 99 5 241
1901021S12113 1901 10 SI WA NOT_NAMED 1901-01-23 06:00:00 NR -13.0000 110.600 main 529 529 _____O________ -1 -13.0000 110.600 99 9.90000 6 239
1901021S12113 1901 10 SI WA NOT_NAMED 1901-01-23 09:00:00 NR -13.1788 110.297 main 557 557 _____P________ -1 -13.1788 110.297 99 7 238
1901021S12113 1901 10 SI WA NOT_NAMED 1901-01-23 12:00:00 NR -13.3865 109.966 main 586 586 _____P________ -1 -13.3865 109.966 99 8 236
1901021S12113 1901 10 SI WA NOT_NAMED 1901-01-23 15:00:00 NR -13.6153 109.621 main 616 616 _____P________ -1 -13.6153 109.621 99 8 235
1901021S12113 1901 10 SI WA NOT_NAMED 1901-01-23 18:00:00 NR -13.8571 109.282 main 656 656 _____P________ -1 -13.8571 109.282 99 8 233
1901021S12113 1901 10 SI WA NOT_NAMED 1901-01-23 21:00:00 NR -14.1042 108.962 main 686 686 _____P________ -1 -14.1042 108.962 99 8 230
1901021S12113 1901 10 SI WA NOT_NAMED 1901-01-24 00:00:00 NR -14.3489 108.681 main 717 717 _____P________ -1 -14.3489 108.681 99 7 226
1901021S12113 1901 10 SI WA NOT_NAMED 1901-01-24 03:00:00 NR -14.5833 108.455 main 755 755 _____P________ -1 -14.5833 108.455 99 6 219
1901021S12113 1901 10 SI WA NOT_NAMED 1901-01-24 06:00:00 NR -14.8000 108.300 main 784 784 _____O________ -1 -14.8000 108.300 99 9.90000 4 206
1901021S12113 1901 10 SI WA NOT_NAMED 1901-01-24 09:00:00 NR -14.9732 108.254 main 805 805 _____P________ -1 -14.9732 108.254 99 3 184
1901021S12113 1901 10 SI WA NOT_NAMED 1901-01-24 12:00:00 NR -15.1324 108.275 main 815 815 _____P________ -1 -15.1324 108.275 99 3 162
1901021S12113 1901 10 SI WA NOT_NAMED 1901-01-24 15:00:00 NR -15.2795 108.355 main 833 833 _____P________ -1 -15.2795 108.355 99 3 144
1901021S12113 1901 10 SI WA NOT_NAMED 1901-01-24 18:00:00 NR -15.4164 108.483 main 841 841 _____P________ -1 -15.4164 108.483 99 4 133
1901021S12113 1901 10 SI WA NOT_NAMED 1901-01-24 21:00:00 NR -15.5450 108.652 main 845 845 _____P________ -1 -15.5450 108.652 99 4 125
1901021S12113 1901 10 SI WA NOT_NAMED 1901-01-25 00:00:00 NR -15.6672 108.850 main 862 855 _____P________ -1 -15.6672 108.850 99 5 121
1901021S12113 1901 10 SI WA NOT_NAMED 1901-01-25 03:00:00 NR -15.7849 109.070 main 855 833 _____P________ -1 -15.7849 109.070 99 5 118
1901021S12113 1901 10 SI WA NOT_NAMED 1901-01-25 06:00:00 NR -15.9000 109.300 main 833 811 _____O________ -1 -15.9000 109.300 99 9.90000 5 121
1901021S12113 1901 10 SI WA NOT_NAMED 1901-01-25 09:00:00 NR -16.0315 109.494 main 811 781 _____P________ -1 -16.0315 109.494 99 5 124
1901021S12113 1901 10 SI WA NOT_NAMED 1901-01-25 12:00:00 NR -16.1599 109.706 main 781 760 _____P________ -1 -16.1599 109.706 99 5 121
1901021S12113 1901 10 SI WA NOT_NAMED 1901-01-25 15:00:00 NR -16.2840 109.934 main 760 733 _____P________ -1 -16.2840 109.934 99 5 118
1901021S12113 1901 10 SI WA NOT_NAMED 1901-01-25 18:00:00 NR -16.4027 110.175 main 733 712 _____P________ -1 -16.4027 110.175 99 5 116
1901021S12113 1901 10 SI WA NOT_NAMED 1901-01-25 21:00:00 NR -16.5148 110.425 main 712 686 _____P________ -1 -16.5148 110.425 99 5 114
1901021S12113 1901 10 SI WA NOT_NAMED 1901-01-26 00:00:00 NR -16.6191 110.681 main 686 666 _____P________ -1 -16.6191 110.681 99 5 112
1901021S12113 1901 10 SI WA NOT_NAMED 1901-01-26 03:00:00 NR -16.7146 110.940 main 666 641 _____P________ -1 -16.7146 110.940 99 5 110
1901021S12113 1901 10 SI WA NOT_NAMED 1901-01-26 06:00:00 NR -16.8000 111.200 main 641 622 _____O________ -1 -16.8000 111.200 99 9.90000 5 109
1901021S12113 1901 10 SI WA NOT_NAMED 1901-01-26 09:00:00 NR -16.8808 111.447 main 622 609 _____P________ -1 -16.8808 111.447 99 5 108
1901021S12113 1901 10 SI WA NOT_NAMED 1901-01-26 12:00:00 NR -16.9520 111.697 main 598 590 _____P________ -1 -16.9520 111.697 99 5 106
1901021S12113 1901 10 SI WA NOT_NAMED 1901-01-26 15:00:00 NR -17.0140 111.948 main 590 569 _____P________ -1 -17.0140 111.948 99 5 103
1901021S12113 1901 10 SI WA NOT_NAMED 1901-01-26 18:00:00 NR -17.0672 112.200 main 569 562 _____P________ -1 -17.0672 112.200 99 5 102
1901021S12113 1901 10 SI WA NOT_NAMED 1901-01-26 21:00:00 NR -17.1120 112.452 main 559 553 _____P________ -1 -17.1120 112.452 99 5 100
1901021S12113 1901 10 SI WA NOT_NAMED 1901-01-27 00:00:00 NR -17.1488 112.703 main 553 538 _____P________ -1 -17.1488 112.703 99 5 98
1901021S12113 1901 10 SI WA NOT_NAMED 1901-01-27 03:00:00 NR -17.1780 112.953 main 532 520 _____P________ -1 -17.1780 112.953 99 5 96
1901021S12113 1901 10 SI WA NOT_NAMED 1901-01-27 06:00:00 NR -17.2000 113.200 main 520 507 _____O________ -1 -17.2000 113.200 99 9.90000 5 95
1901021S12113 1901 10 SI WA NOT_NAMED 1901-01-27 09:00:00 NR -17.2152 113.444 main 507 490 _____P________ -1 -17.2152 113.444 99 5 93
1901021S12113 1901 10 SI WA NOT_NAMED 1901-01-27 12:00:00 NR -17.2245 113.686 main 490 479 _____P________ -1 -17.2245 113.686 99 5 92
1901021S12113 1901 10 SI WA NOT_NAMED 1901-01-27 15:00:00 NR -17.2285 113.925 main 479 468 _____P________ -1 -17.2285 113.925 99 5 90
1901021S12113 1901 10 SI WA NOT_NAMED 1901-01-27 18:00:00 NR -17.2282 114.163 main 462 450 _____P________ -1 -17.2282 114.163 99 5 89
1901021S12113 1901 10 SI WA NOT_NAMED 1901-01-27 21:00:00 NR -17.2244 114.398 main 450 439 _____P________ -1 -17.2244 114.398 99 4 89
1901021S12113 1901 10 SI WA NOT_NAMED 1901-01-28 00:00:00 NR -17.2179 114.633 main 439 424 _____P________ -1 -17.2179 114.633 99 4 88
1901021S12113 1901 10 SI WA NOT_NAMED 1901-01-28 03:00:00 NR -17.2095 114.867 main 424 415 _____P________ -1 -17.2095 114.867 99 4 88
1901021S12113 1901 10 SI WA NOT_NAMED 1901-01-28 06:00:00 NR -17.2000 115.100 main 415 _____O________ -1 -17.2000 115.100 99 9.90000 4 88

About IBTrACS Database

This database is a web-friendly format of International Best Track Archive for Climate Stewardship (IBTrACS), a global best track data archive curated by NOAA dating back to 1842.

Updated: 2021-12-03